Maya — V7MU3 — position and weather

sailwx.info

Track history (hours):
 
Tides and Currents Weather Stations Pressure Air Temp Water Temp Dewpoint Dewpoint Depression Visibility Wind Speed Wind Dir Waves Ship Positions

Maya

Last reported at 2018-Apr-13 14:34 UTC. Time now 2018-Jun-18 02:14 UTC.
Position N 33°46' E 129°05'.
Warning: this ship's position is months out of date.

Length 123 m; draft 5.3 m.

Type: Ship (hazmat cat B). MMSI: 538002900.

Date/timePositionNaut miles runAvg speedWind from/ knotsBaromVisibWave heightAir tempDewpointWater temp
2018-Apr-13 14:34N 33°46' E 129°05'0 2.7
2018-Apr-13 14:28N 33°46' E 129°05'27 1.3
2018-Apr-12 17:56N 33°34' E 128°35'0 1.1
2018-Apr-12 17:30N 33°35' E 128°35'2 1.1
2018-Apr-12 15:46N 33°37' E 128°35'14 0.6
2018-Apr-11 17:40N 33°39' E 128°18'1 1.8
2018-Apr-11 17:11N 33°39' E 128°17'1 1.7
2018-Apr-11 16:53N 33°39' E 128°16'1 1.8
2018-Apr-11 16:30N 33°39' E 128°15'6 1.9
2018-Apr-11 13:33N 33°38' E 128°09'1 1.8
2018-Apr-11 13:05N 33°37' E 128°08'0 2.0
2018-Apr-11 12:58N 33°37' E 128°08'1 1.7
2018-Apr-11 12:28N 33°37' E 128°07'2 1.8
2018-Apr-11 11:14N 33°35' E 128°05'1 2.0
2018-Apr-11 10:58N 33°35' E 128°05'1 1.7
2018-Apr-11 10:30N 33°34' E 128°04'28 0.6
2018-Apr-09 11:13N 33°28' E 127°32'0 1.0
2018-Apr-09 10:55N 33°28' E 127°32'  
Track history (hours):
 
Tides and Currents Weather Stations Pressure Air Temp Water Temp Dewpoint Dewpoint Depression Visibility Wind Speed Wind Dir Waves Ship Positions

Maya

Last reported at 2018-Apr-13 14:34 UTC. Time now 2018-Jun-18 02:14 UTC.
Position N 33°46' E 129°05'.
Warning: this ship's position is months out of date.

Length 123 m; draft 5.3 m.

Type: Ship (hazmat cat B). MMSI: 538002900.

Date/timePositionNaut miles runAvg speedWind from/ knotsBaromVisibWave heightAir tempDewpointWater temp
2018-Apr-13 14:34N 33°46' E 129°05'0 2.7
2018-Apr-13 14:28N 33°46' E 129°05'27 1.3
2018-Apr-12 17:56N 33°34' E 128°35'0 1.1
2018-Apr-12 17:30N 33°35' E 128°35'2 1.1
2018-Apr-12 15:46N 33°37' E 128°35'14 0.6
2018-Apr-11 17:40N 33°39' E 128°18'1 1.8
2018-Apr-11 17:11N 33°39' E 128°17'1 1.7
2018-Apr-11 16:53N 33°39' E 128°16'1 1.8
2018-Apr-11 16:30N 33°39' E 128°15'6 1.9
2018-Apr-11 13:33N 33°38' E 128°09'1 1.8
2018-Apr-11 13:05N 33°37' E 128°08'0 2.0
2018-Apr-11 12:58N 33°37' E 128°08'1 1.7
2018-Apr-11 12:28N 33°37' E 128°07'2 1.8
2018-Apr-11 11:14N 33°35' E 128°05'1 2.0
2018-Apr-11 10:58N 33°35' E 128°05'1 1.7
2018-Apr-11 10:30N 33°34' E 128°04'28 0.6
2018-Apr-09 11:13N 33°28' E 127°32'0 1.0
2018-Apr-09 10:55N 33°28' E 127°32'  

Dump ship's entire track history